Wetterdaten: Woche 08.05.23 - 14.05.23 (KW19)
Datum Zeit Temp. I. Temp. A. Feuchte I. Feuchte A. Luftdruck Regen Wind Richtung Sonnenschein Solar Taupunkt Windchill Windböen
08.05.2023 00:00 21,3 °C 6,9 °C 52 % 87 % 1024,5 hPa 0,0 l/m² 8,2 km/h (2 Bft) O 0,00 h 0 W/m² 4,8 °C 5,4 °C 13,9 km/h (3 Bft)
08.05.2023 01:00 21,3 °C 6,5 °C 52 % 87 % 1024,3 hPa 0,0 l/m² 9,7 km/h (2 Bft) O-NO 0,00 h 0 W/m² 4,6 °C 4,0 °C 15,0 km/h (3 Bft)
08.05.2023 02:00 21,3 °C 6,3 °C 52 % 87 % 1024,3 hPa 0,0 l/m² 9,1 km/h (2 Bft) O-NO 0,00 h 0 W/m² 4,3 °C 4,2 °C 13,9 km/h (3 Bft)
08.05.2023 03:00 21,3 °C 5,2 °C 52 % 88 % 1024,4 hPa 0,0 l/m² 4,4 km/h (1 Bft) O-NO 0,00 h 0 W/m² 3,4 °C 5,2 °C 6,5 km/h (2 Bft)
08.05.2023 04:00 21,3 °C 4,4 °C 52 % 90 % 1024,6 hPa 0,0 l/m² 4,9 km/h (1 Bft) O-NO 0,00 h 0 W/m² 2,9 °C 4,3 °C 7,5 km/h (2 Bft)
08.05.2023 05:00 21,3 °C 4,0 °C 52 % 91 % 1024,6 hPa 0,0 l/m² 5,8 km/h (2 Bft) O-NO 0,00 h 12 W/m² 2,6 °C 3,9 °C 8,6 km/h (2 Bft)
08.05.2023 06:00 21,3 °C 4,5 °C 52 % 91 % 1025,0 hPa 0,0 l/m² 5,8 km/h (2 Bft) O-NO 0,33 h 49 W/m² 3,1 °C 4,2 °C 9,0 km/h (2 Bft)
08.05.2023 07:00 21,4 °C 6,4 °C 52 % 89 % 1025,2 hPa 0,0 l/m² 11,3 km/h (2 Bft) O 1,00 h 198 W/m² 4,7 °C 2,9 °C 15,3 km/h (3 Bft)
08.05.2023 08:00 21,6 °C 8,9 °C 51 % 83 % 1025,2 hPa 0,0 l/m² 12,7 km/h (3 Bft) O 1,00 h 340 W/m² 6,1 °C 5,0 °C 17,2 km/h (3 Bft)
08.05.2023 09:00 21,6 °C 11,1 °C 49 % 77 % 1025,2 hPa 0,0 l/m² 14,2 km/h (3 Bft) O 1,00 h 580 W/m² 7,3 °C 6,9 °C 18,4 km/h (3 Bft)
08.05.2023 10:00 21,8 °C 13,1 °C 48 % 73 % 1025,0 hPa 0,0 l/m² 14,3 km/h (3 Bft) O-NO 1,00 h 712 W/m² 8,4 °C 9,2 °C 19,6 km/h (3 Bft)
08.05.2023 11:00 22,1 °C 14,5 °C 46 % 70 % 1025,1 hPa 0,0 l/m² 15,7 km/h (3 Bft) O 1,00 h 812 W/m² 9,2 °C 10,4 °C 21,7 km/h (4 Bft)
08.05.2023 12:00 22,1 °C 15,6 °C 44 % 68 % 1024,9 hPa 0,0 l/m² 16,0 km/h (3 Bft) O 1,00 h 865 W/m² 9,7 °C 11,7 °C 21,2 km/h (4 Bft)
08.05.2023 13:00 22,1 °C 16,9 °C 46 % 63 % 1024,6 hPa 0,0 l/m² 17,0 km/h (3 Bft) O 1,00 h 861 W/m² 9,8 °C 13,0 °C 23,0 km/h (4 Bft)
08.05.2023 14:00 22,0 °C 17,9 °C 47 % 58 % 1024,1 hPa 0,0 l/m² 18,0 km/h (3 Bft) O 1,00 h 807 W/m² 9,5 °C 13,9 °C 24,2 km/h (4 Bft)
08.05.2023 15:00 22,1 °C 18,1 °C 48 % 56 % 1023,6 hPa 0,0 l/m² 18,2 km/h (3 Bft) O 1,00 h 593 W/m² 9,2 °C 14,2 °C 23,6 km/h (4 Bft)
08.05.2023 16:00 21,9 °C 18,5 °C 48 % 53 % 1023,2 hPa 0,0 l/m² 16,1 km/h (3 Bft) O 1,00 h 461 W/m² 8,8 °C 15,2 °C 21,3 km/h (4 Bft)
08.05.2023 17:00 21,9 °C 18,8 °C 48 % 51 % 1023,1 hPa 0,0 l/m² 16,7 km/h (3 Bft) O-NO 1,00 h 467 W/m² 8,4 °C 15,4 °C 23,1 km/h (4 Bft)
08.05.2023 18:00 21,8 °C 18,1 °C 48 % 51 % 1022,8 hPa 0,0 l/m² 18,2 km/h (3 Bft) O 1,00 h 294 W/m² 7,7 °C 14,2 °C 24,1 km/h (4 Bft)
08.05.2023 19:00 21,8 °C 16,9 °C 50 % 54 % 1022,7 hPa 0,0 l/m² 14,8 km/h (3 Bft) O 0,85 h 101 W/m² 7,4 °C 13,6 °C 20,1 km/h (4 Bft)
08.05.2023 20:00 21,8 °C 14,6 °C 51 % 61 % 1023,0 hPa 0,0 l/m² 9,8 km/h (2 Bft) O-NO 0,00 h 15 W/m² 7,2 °C 12,9 °C 13,9 km/h (3 Bft)
08.05.2023 21:00 21,8 °C 11,6 °C 51 % 70 % 1023,2 hPa 0,0 l/m² 7,9 km/h (2 Bft) O-NO 0,00 h 0 W/m² 6,4 °C 10,7 °C 12,0 km/h (2 Bft)
08.05.2023 22:00 21,8 °C 10,4 °C 51 % 73 % 1023,4 hPa 0,0 l/m² 7,7 km/h (2 Bft) O-NO 0,00 h 0 W/m² 5,7 °C 9,4 °C 12,9 km/h (3 Bft)
08.05.2023 23:00 21,7 °C 9,7 °C 52 % 75 % 1023,2 hPa 0,0 l/m² 9,9 km/h (2 Bft) O-NO 0,00 h 0 W/m² 5,5 °C 7,4 °C 14,7 km/h (3 Bft)
09.05.2023 00:00 21,6 °C 8,4 °C 52 % 80 % 1022,8 hPa 0,0 l/m² 9,8 km/h (2 Bft) O-NO 0,00 h 0 W/m² 5,2 °C 6,1 °C 13,3 km/h (3 Bft)
09.05.2023 01:00 21,6 °C 7,1 °C 52 % 85 % 1022,5 hPa 0,0 l/m² 8,1 km/h (2 Bft) O-NO 0,00 h 0 W/m² 4,7 °C 5,6 °C 10,8 km/h (2 Bft)
09.05.2023 02:00 21,5 °C 5,8 °C 52 % 88 % 1022,1 hPa 0,0 l/m² 3,7 km/h (1 Bft) O-NO 0,00 h 0 W/m² 3,9 °C 5,8 °C 5,4 km/h (2 Bft)
09.05.2023 03:00 21,6 °C 5,3 °C 52 % 90 % 1021,7 hPa 0,0 l/m² 8,1 km/h (2 Bft) O-NO 0,00 h 0 W/m² 3,7 °C 3,8 °C 11,4 km/h (2 Bft)
09.05.2023 04:00 21,6 °C 5,2 °C 51 % 89 % 1021,6 hPa 0,0 l/m² 6,8 km/h (2 Bft) O-NO 0,00 h 0 W/m² 3,6 °C 4,7 °C 10,1 km/h (2 Bft)
09.05.2023 05:00 21,6 °C 4,6 °C 52 % 90 % 1021,4 hPa 0,0 l/m² 5,3 km/h (1 Bft) O-NO 0,00 h 10 W/m² 3,1 °C 4,4 °C 8,5 km/h (2 Bft)
09.05.2023 06:00 21,6 °C 5,0 °C 52 % 90 % 1021,2 hPa 0,0 l/m² 6,7 km/h (2 Bft) O-NO 0,25 h 46 W/m² 3,5 °C 4,2 °C 10,4 km/h (2 Bft)
09.05.2023 07:00 21,6 °C 7,7 °C 50 % 84 % 1020,9 hPa 0,0 l/m² 7,0 km/h (2 Bft) O-NO 1,00 h 221 W/m² 5,2 °C 7,0 °C 10,4 km/h (2 Bft)
09.05.2023 08:00 21,8 °C 11,4 °C 50 % 73 % 1020,5 hPa 0,0 l/m² 8,8 km/h (2 Bft) O 1,00 h 366 W/m² 6,8 °C 9,9 °C 12,7 km/h (3 Bft)
09.05.2023 09:00 21,9 °C 14,1 °C 50 % 65 % 1019,7 hPa 0,0 l/m² 12,6 km/h (3 Bft) O 1,00 h 577 W/m² 7,7 °C 11,1 °C 16,7 km/h (3 Bft)
09.05.2023 10:00 22,2 °C 15,9 °C 49 % 62 % 1018,9 hPa 0,0 l/m² 15,2 km/h (3 Bft) O 1,00 h 714 W/m² 8,5 °C 12,3 °C 19,7 km/h (3 Bft)
09.05.2023 11:00 22,4 °C 17,5 °C 49 % 60 % 1018,2 hPa 0,0 l/m² 16,1 km/h (3 Bft) O 1,00 h 814 W/m² 9,6 °C 14,0 °C 21,6 km/h (4 Bft)
09.05.2023 12:00 22,7 °C 18,6 °C 49 % 56 % 1017,6 hPa 0,0 l/m² 18,8 km/h (3 Bft) O 1,00 h 869 W/m² 9,6 °C 14,7 °C 24,6 km/h (4 Bft)
09.05.2023 13:00 22,8 °C 19,6 °C 48 % 53 % 1016,6 hPa 0,0 l/m² 19,7 km/h (3 Bft) O 1,00 h 875 W/m² 9,8 °C 15,8 °C 25,9 km/h (4 Bft)
09.05.2023 14:00 22,9 °C 20,1 °C 48 % 52 % 1015,5 hPa 0,0 l/m² 19,9 km/h (4 Bft) O 1,00 h 814 W/m² 10,0 °C 16,4 °C 26,0 km/h (4 Bft)
09.05.2023 15:00 23,0 °C 20,6 °C 49 % 50 % 1014,6 hPa 0,0 l/m² 19,4 km/h (3 Bft) O 1,00 h 735 W/m² 9,7 °C 17,1 °C 25,2 km/h (4 Bft)
09.05.2023 16:00 22,9 °C 20,5 °C 49 % 47 % 1013,9 hPa 0,0 l/m² 18,1 km/h (3 Bft) O 1,00 h 578 W/m² 8,7 °C 17,3 °C 23,4 km/h (4 Bft)
09.05.2023 17:00 22,7 °C 20,2 °C 49 % 41 % 1013,1 hPa 0,0 l/m² 17,2 km/h (3 Bft) O 1,00 h 400 W/m² 6,6 °C 17,1 °C 22,1 km/h (4 Bft)
09.05.2023 18:00 22,6 °C 19,1 °C 49 % 38 % 1012,4 hPa 0,0 l/m² 18,8 km/h (3 Bft) O 1,00 h 217 W/m² 4,6 °C 15,4 °C 24,1 km/h (4 Bft)
09.05.2023 19:00 22,5 °C 17,5 °C 50 % 44 % 1011,8 hPa 0,0 l/m² 12,8 km/h (3 Bft) O 0,90 h 86 W/m² 5,1 °C 15,1 °C 17,3 km/h (3 Bft)
09.05.2023 20:00 22,3 °C 14,8 °C 50 % 57 % 1011,7 hPa 0,0 l/m² 8,7 km/h (2 Bft) O-NO 0,00 h 22 W/m² 6,3 °C 13,5 °C 12,2 km/h (2 Bft)
09.05.2023 21:00 22,3 °C 13,1 °C 50 % 63 % 1011,5 hPa 0,0 l/m² 10,2 km/h (2 Bft) O-NO 0,00 h 0 W/m² 6,1 °C 10,9 °C 14,6 km/h (3 Bft)
09.05.2023 22:00 22,2 °C 11,8 °C 51 % 70 % 1011,2 hPa 0,0 l/m² 7,3 km/h (2 Bft) O-NO 0,00 h 0 W/m² 6,4 °C 11,2 °C 11,4 km/h (2 Bft)
09.05.2023 23:00 21,9 °C 10,8 °C 52 % 75 % 1010,8 hPa 0,0 l/m² 9,5 km/h (2 Bft) O-NO 0,00 h 0 W/m² 6,6 °C 8,8 °C 12,8 km/h (3 Bft)
10.05.2023 00:00 21,8 °C 10,9 °C 52 % 74 % 1010,4 hPa 0,0 l/m² 8,4 km/h (2 Bft) O-NO 0,00 h 0 W/m² 6,4 °C 9,5 °C 12,7 km/h (3 Bft)
10.05.2023 01:00 21,7 °C 10,0 °C 53 % 76 % 1010,0 hPa 0,0 l/m² 8,1 km/h (2 Bft) O-NO 0,00 h 0 W/m² 6,0 °C 8,6 °C 12,0 km/h (2 Bft)
10.05.2023 02:00 21,6 °C 8,9 °C 53 % 80 % 1009,7 hPa 0,0 l/m² 10,2 km/h (2 Bft) O-NO 0,00 h 0 W/m² 5,7 °C 6,3 °C 13,2 km/h (3 Bft)
10.05.2023 03:00 21,6 °C 8,3 °C 54 % 83 % 1009,4 hPa 0,0 l/m² 6,6 km/h (2 Bft) O-NO 0,00 h 0 W/m² 5,5 °C 7,6 °C 9,8 km/h (2 Bft)
10.05.2023 04:00 21,6 °C 8,1 °C 53 % 83 % 1009,3 hPa 0,0 l/m² 5,1 km/h (1 Bft) O-NO 0,00 h 0 W/m² 5,4 °C 8,0 °C 7,6 km/h (2 Bft)
10.05.2023 05:00 21,8 °C 7,7 °C 54 % 85 % 1009,1 hPa 0,0 l/m² 4,0 km/h (1 Bft) O-NO 0,00 h 20 W/m² 5,3 °C 7,7 °C 7,1 km/h (2 Bft)
10.05.2023 06:00 21,9 °C 9,1 °C 53 % 83 % 1008,9 hPa 0,0 l/m² 8,3 km/h (2 Bft) O-NO 0,95 h 88 W/m² 6,3 °C 7,5 °C 12,5 km/h (2 Bft)
10.05.2023 07:00 21,9 °C 11,2 °C 51 % 79 % 1009,0 hPa 0,0 l/m² 8,2 km/h (2 Bft) O 1,02 h 123 W/m² 7,8 °C 10,0 °C 11,7 km/h (2 Bft)
10.05.2023 08:00 21,9 °C 13,4 °C 51 % 75 % 1009,3 hPa 0,0 l/m² 6,2 km/h (2 Bft) O-SO 1,00 h 179 W/m² 8,9 °C 12,9 °C 9,4 km/h (2 Bft)
10.05.2023 09:00 21,8 °C 13,6 °C 51 % 77 % 1009,6 hPa 0,0 l/m² 8,3 km/h (2 Bft) SO 1,00 h 157 W/m² 9,6 °C 12,4 °C 12,0 km/h (2 Bft)
10.05.2023 10:00 21,8 °C 13,8 °C 51 % 82 % 1009,9 hPa 0,0 l/m² 8,4 km/h (2 Bft) O-SO 1,00 h 176 W/m² 10,9 °C 12,6 °C 11,9 km/h (2 Bft)
10.05.2023 11:00 21,8 °C 14,9 °C 51 % 84 % 1010,4 hPa 0,0 l/m² 9,2 km/h (2 Bft) S-SO 1,00 h 174 W/m² 12,3 °C 13,4 °C 13,1 km/h (3 Bft)
10.05.2023 12:00 21,8 °C 15,7 °C 51 % 86 % 1010,8 hPa 0,0 l/m² 8,1 km/h (2 Bft) SW 1,00 h 248 W/m² 13,4 °C 14,8 °C 11,2 km/h (2 Bft)
10.05.2023 13:00 21,9 °C 16,3 °C 51 % 85 % 1011,1 hPa 0,0 l/m² 7,4 km/h (2 Bft) SW 1,00 h 425 W/m² 13,8 °C 15,5 °C 10,7 km/h (2 Bft)
10.05.2023 14:00 21,9 °C 16,4 °C 51 % 83 % 1011,4 hPa 0,0 l/m² 5,0 km/h (1 Bft) SW 1,00 h 275 W/m² 13,5 °C 16,3 °C 7,2 km/h (2 Bft)
10.05.2023 15:00 21,9 °C 16,5 °C 51 % 83 % 1011,6 hPa 0,0 l/m² 4,1 km/h (1 Bft) S-SW 1,00 h 355 W/m² 13,7 °C 16,4 °C 6,0 km/h (2 Bft)
10.05.2023 16:00 21,9 °C 16,5 °C 51 % 85 % 1011,6 hPa 0,0 l/m² 4,6 km/h (1 Bft) S-SW 1,00 h 284 W/m² 13,9 °C 16,3 °C 6,8 km/h (2 Bft)
10.05.2023 17:00 21,8 °C 16,4 °C 52 % 86 % 1011,9 hPa 0,0 l/m² 4,7 km/h (1 Bft) O-NO 1,00 h 146 W/m² 14,0 °C 16,4 °C 6,6 km/h (2 Bft)
10.05.2023 18:00 21,8 °C 15,9 °C 54 % 86 % 1012,1 hPa 0,0 l/m² 6,6 km/h (2 Bft) O-NO 1,00 h 99 W/m² 13,6 °C 15,6 °C 9,6 km/h (2 Bft)
10.05.2023 19:00 22,1 °C 15,2 °C 57 % 88 % 1012,5 hPa 0,0 l/m² 5,1 km/h (1 Bft) SO 0,57 h 52 W/m² 13,3 °C 15,1 °C 7,5 km/h (2 Bft)
10.05.2023 20:00 21,9 °C 14,4 °C 56 % 91 % 1012,8 hPa 0,0 l/m² 1,6 km/h (1 Bft) O-SO 0,00 h 16 W/m² 12,9 °C 14,4 °C 2,7 km/h (1 Bft)
10.05.2023 21:00 21,9 °C 13,7 °C 56 % 92 % 1013,1 hPa 0,0 l/m² 0,0 km/h (0 Bft) N 0,00 h 0 W/m² 12,3 °C 13,7 °C 0,0 km/h (0 Bft)
10.05.2023 22:00 21,6 °C 13,1 °C 56 % 93 % 1013,2 hPa 0,0 l/m² 0,2 km/h (0 Bft) N 0,00 h 0 W/m² 12,1 °C 13,1 °C 0,4 km/h (0 Bft)
10.05.2023 23:00 21,4 °C 12,7 °C 56 % 94 % 1013,3 hPa 0,0 l/m² 2,3 km/h (1 Bft) O-SO 0,00 h 0 W/m² 11,8 °C 12,7 °C 3,1 km/h (1 Bft)
11.05.2023 00:00 21,3 °C 12,8 °C 56 % 95 % 1013,6 hPa 0,0 l/m² 2,9 km/h (1 Bft) O 0,00 h 0 W/m² 12,0 °C 12,8 °C 4,4 km/h (1 Bft)
11.05.2023 01:00 21,3 °C 12,8 °C 56 % 95 % 1013,7 hPa 0,4 l/m² 1,5 km/h (1 Bft) O 0,00 h 0 W/m² 12,0 °C 12,8 °C 2,7 km/h (1 Bft)
11.05.2023 02:00 21,3 °C 12,7 °C 56 % 95 % 1013,5 hPa 0,2 l/m² 0,0 km/h (0 Bft) N 0,00 h 0 W/m² 12,0 °C 12,7 °C 0,1 km/h (0 Bft)
11.05.2023 03:00 21,3 °C 12,7 °C 56 % 96 % 1013,4 hPa 0,0 l/m² 0,0 km/h (0 Bft) N 0,00 h 0 W/m² 12,1 °C 12,7 °C 0,0 km/h (0 Bft)
11.05.2023 04:00 21,3 °C 12,4 °C 55 % 96 % 1013,5 hPa 0,0 l/m² 0,0 km/h (0 Bft) N 0,00 h 0 W/m² 11,8 °C 12,4 °C 0,0 km/h (0 Bft)
11.05.2023 05:00 21,5 °C 12,2 °C 56 % 96 % 1013,4 hPa 0,2 l/m² 0,0 km/h (0 Bft) O 0,00 h 7 W/m² 11,6 °C 12,2 °C 0,0 km/h (0 Bft)
11.05.2023 06:00 21,6 °C 12,4 °C 56 % 96 % 1013,4 hPa 0,0 l/m² 0,0 km/h (0 Bft) O 0,00 h 19 W/m² 11,7 °C 12,4 °C 0,2 km/h (0 Bft)
11.05.2023 07:00 21,5 °C 12,8 °C 55 % 96 % 1013,5 hPa 0,0 l/m² 0,0 km/h (0 Bft) O 0,03 h 36 W/m² 12,3 °C 12,8 °C 0,0 km/h (0 Bft)
11.05.2023 08:00 21,5 °C 13,6 °C 55 % 96 % 1013,7 hPa 0,0 l/m² 0,8 km/h (0 Bft) O 0,90 h 106 W/m² 13,0 °C 13,6 °C 2,1 km/h (1 Bft)
11.05.2023 09:00 21,6 °C 15,1 °C 54 % 92 % 1013,5 hPa 0,0 l/m² 2,4 km/h (1 Bft) O 1,00 h 263 W/m² 13,8 °C 15,1 °C 4,5 km/h (1 Bft)
11.05.2023 10:00 21,7 °C 16,2 °C 54 % 87 % 1013,6 hPa 0,0 l/m² 5,9 km/h (2 Bft) O-NO 1,00 h 273 W/m² 13,9 °C 15,8 °C 8,7 km/h (2 Bft)
11.05.2023 11:00 21,7 °C 16,9 °C 54 % 84 % 1013,7 hPa 0,0 l/m² 6,0 km/h (2 Bft) O 1,00 h 325 W/m² 14,1 °C 16,5 °C 8,9 km/h (2 Bft)
11.05.2023 12:00 21,8 °C 17,8 °C 53 % 80 % 1013,5 hPa 0,0 l/m² 9,4 km/h (2 Bft) O-SO 1,00 h 410 W/m² 14,2 °C 16,4 °C 13,1 km/h (3 Bft)
11.05.2023 13:00 22,0 °C 18,9 °C 53 % 76 % 1013,3 hPa 0,0 l/m² 10,7 km/h (2 Bft) O 1,00 h 572 W/m² 14,5 °C 17,2 °C 14,4 km/h (3 Bft)
11.05.2023 14:00 22,2 °C 19,6 °C 53 % 73 % 1013,2 hPa 0,0 l/m² 8,6 km/h (2 Bft) SO 1,00 h 478 W/m² 14,6 °C 18,5 °C 12,0 km/h (2 Bft)
11.05.2023 15:00 22,1 °C 17,8 °C 53 % 82 % 1013,1 hPa 0,6 l/m² 4,2 km/h (1 Bft) SO 1,00 h 355 W/m² 14,6 °C 17,4 °C 6,2 km/h (2 Bft)
11.05.2023 16:00 22,2 °C 20,6 °C 53 % 72 % 1012,7 hPa 0,0 l/m² 7,0 km/h (2 Bft) SO 1,00 h 554 W/m² 15,2 °C 20,0 °C 10,0 km/h (2 Bft)
11.05.2023 17:00 22,0 °C 16,3 °C 53 % 84 % 1013,3 hPa 6,2 l/m² 6,7 km/h (2 Bft) NW 0,53 h 54 W/m² 13,4 °C 15,6 °C 9,2 km/h (2 Bft)
11.05.2023 18:00 21,9 °C 16,2 °C 55 % 92 % 1013,3 hPa 0,0 l/m² 0,5 km/h (0 Bft) NW 1,00 h 121 W/m² 14,9 °C 16,2 °C 0,9 km/h (0 Bft)
11.05.2023 19:00 22,0 °C 16,6 °C 56 % 90 % 1013,5 hPa 0,0 l/m² 3,7 km/h (1 Bft) O-NO 1,00 h 71 W/m² 14,9 °C 16,6 °C 5,1 km/h (1 Bft)
11.05.2023 20:00 21,9 °C 15,2 °C 56 % 90 % 1014,2 hPa 0,0 l/m² 1,9 km/h (1 Bft) S 0,05 h 24 W/m² 13,5 °C 15,2 °C 2,9 km/h (1 Bft)
11.05.2023 21:00 21,9 °C 13,9 °C 56 % 91 % 1014,9 hPa 0,0 l/m² 0,3 km/h (0 Bft) S 0,00 h 0 W/m² 12,4 °C 13,9 °C 0,6 km/h (0 Bft)
11.05.2023 22:00 21,8 °C 13,0 °C 56 % 93 % 1015,3 hPa 0,0 l/m² 0,1 km/h (0 Bft) S 0,00 h 0 W/m² 12,0 °C 13,0 °C 0,4 km/h (0 Bft)
11.05.2023 23:00 21,6 °C 12,3 °C 56 % 94 % 1015,4 hPa 0,0 l/m² 0,2 km/h (0 Bft) N 0,00 h 0 W/m² 11,4 °C 12,3 °C 0,3 km/h (0 Bft)
12.05.2023 00:00 21,4 °C 12,0 °C 57 % 95 % 1015,6 hPa 0,0 l/m² 0,3 km/h (0 Bft) N 0,00 h 0 W/m² 11,2 °C 12,0 °C 0,6 km/h (0 Bft)
12.05.2023 01:00 21,3 °C 11,4 °C 57 % 94 % 1015,7 hPa 0,0 l/m² 2,8 km/h (1 Bft) SO 0,00 h 0 W/m² 10,5 °C 11,4 °C 4,6 km/h (1 Bft)
12.05.2023 02:00 21,2 °C 11,0 °C 57 % 93 % 1015,8 hPa 0,0 l/m² 2,1 km/h (1 Bft) NO 0,00 h 0 W/m² 9,8 °C 11,0 °C 3,5 km/h (1 Bft)
12.05.2023 03:00 21,2 °C 10,7 °C 57 % 93 % 1016,0 hPa 0,0 l/m² 0,2 km/h (0 Bft) N 0,00 h 0 W/m² 9,7 °C 10,7 °C 0,4 km/h (0 Bft)
12.05.2023 04:00 21,2 °C 10,3 °C 57 % 94 % 1016,2 hPa 0,0 l/m² 0,4 km/h (0 Bft) N 0,00 h 0 W/m² 9,4 °C 10,3 °C 0,8 km/h (0 Bft)
12.05.2023 05:00 21,4 °C 10,2 °C 57 % 95 % 1016,0 hPa 0,0 l/m² 0,7 km/h (0 Bft) S-SO 0,00 h 8 W/m² 9,4 °C 10,2 °C 1,1 km/h (1 Bft)
12.05.2023 06:00 21,6 °C 10,5 °C 57 % 95 % 1016,3 hPa 0,0 l/m² 0,0 km/h (0 Bft) S-SO 0,08 h 33 W/m² 9,7 °C 10,5 °C 0,0 km/h (0 Bft)
12.05.2023 07:00 21,5 °C 11,8 °C 55 % 95 % 1016,6 hPa 0,0 l/m² 0,0 km/h (0 Bft) S-SO 1,00 h 87 W/m² 11,0 °C 11,8 °C 0,1 km/h (0 Bft)
12.05.2023 08:00 21,6 °C 14,1 °C 55 % 84 % 1017,0 hPa 0,0 l/m² 3,0 km/h (1 Bft) NO 1,00 h 227 W/m² 11,4 °C 14,0 °C 5,4 km/h (2 Bft)
12.05.2023 09:00 21,7 °C 16,9 °C 55 % 73 % 1017,1 hPa 0,0 l/m² 9,8 km/h (2 Bft) O 1,00 h 512 W/m² 11,9 °C 15,4 °C 13,5 km/h (3 Bft)
12.05.2023 10:00 22,0 °C 19,7 °C 54 % 58 % 1017,0 hPa 0,0 l/m² 12,4 km/h (2 Bft) O-NO 1,00 h 704 W/m² 11,1 °C 17,6 °C 19,1 km/h (3 Bft)
12.05.2023 11:00 22,3 °C 20,8 °C 54 % 54 % 1017,0 hPa 0,0 l/m² 17,1 km/h (3 Bft) O 1,00 h 804 W/m² 11,2 °C 17,8 °C 22,9 km/h (4 Bft)
12.05.2023 12:00 22,5 °C 21,4 °C 53 % 51 % 1017,0 hPa 0,0 l/m² 13,8 km/h (3 Bft) O-NO 1,00 h 780 W/m² 10,8 °C 19,3 °C 19,3 km/h (3 Bft)
12.05.2023 13:00 22,7 °C 22,3 °C 53 % 50 % 1017,0 hPa 0,0 l/m² 13,4 km/h (3 Bft) O 1,00 h 956 W/m² 11,2 °C 20,4 °C 18,3 km/h (3 Bft)
12.05.2023 14:00 22,9 °C 22,8 °C 53 % 46 % 1017,0 hPa 0,0 l/m² 12,4 km/h (2 Bft) NO 1,00 h 819 W/m² 10,6 °C 21,3 °C 17,8 km/h (3 Bft)
12.05.2023 15:00 22,8 °C 22,3 °C 53 % 41 % 1017,0 hPa 0,0 l/m² 9,0 km/h (2 Bft) N-NO 1,00 h 409 W/m² 8,2 °C 21,5 °C 14,5 km/h (3 Bft)
12.05.2023 16:00 22,7 °C 22,4 °C 53 % 41 % 1016,9 hPa 0,0 l/m² 9,7 km/h (2 Bft) NO 1,00 h 475 W/m² 8,4 °C 21,4 °C 16,1 km/h (3 Bft)
12.05.2023 17:00 22,6 °C 20,8 °C 52 % 48 % 1016,9 hPa 0,0 l/m² 6,1 km/h (2 Bft) O-NO 1,00 h 171 W/m² 9,2 °C 20,5 °C 8,9 km/h (2 Bft)
12.05.2023 18:00 22,4 °C 20,0 °C 51 % 51 % 1016,8 hPa 0,0 l/m² 3,3 km/h (1 Bft) O-NO 1,00 h 140 W/m² 9,6 °C 19,8 °C 4,9 km/h (1 Bft)
12.05.2023 19:00 22,4 °C 20,7 °C 53 % 50 % 1017,0 hPa 0,0 l/m² 6,3 km/h (2 Bft) NO 0,72 h 104 W/m² 9,9 °C 20,1 °C 9,9 km/h (2 Bft)
12.05.2023 20:00 22,5 °C 18,3 °C 54 % 58 % 1017,4 hPa 0,0 l/m² 2,2 km/h (1 Bft) O-NO 0,00 h 11 W/m² 9,8 °C 18,3 °C 3,9 km/h (1 Bft)
12.05.2023 21:00 22,7 °C 15,4 °C 54 % 78 % 1017,9 hPa 0,0 l/m² 1,2 km/h (1 Bft) O-NO 0,00 h 0 W/m² 11,5 °C 15,4 °C 1,8 km/h (1 Bft)
12.05.2023 22:00 22,3 °C 14,1 °C 55 % 83 % 1018,2 hPa 0,0 l/m² 0,9 km/h (0 Bft) N 0,00 h 0 W/m² 11,3 °C 14,1 °C 1,5 km/h (1 Bft)
12.05.2023 23:00 22,0 °C 13,2 °C 55 % 87 % 1018,5 hPa 0,0 l/m² 0,6 km/h (0 Bft) N 0,00 h 0 W/m² 11,0 °C 13,2 °C 1,0 km/h (0 Bft)
13.05.2023 00:00 21,8 °C 11,4 °C 55 % 89 % 1018,8 hPa 0,0 l/m² 0,1 km/h (0 Bft) N 0,00 h 0 W/m² 9,7 °C 11,4 °C 0,4 km/h (0 Bft)
13.05.2023 01:00 21,7 °C 9,8 °C 55 % 91 % 1019,0 hPa 0,0 l/m² 0,3 km/h (0 Bft) N 0,00 h 0 W/m² 8,4 °C 9,8 °C 0,7 km/h (0 Bft)
13.05.2023 02:00 21,7 °C 9,2 °C 55 % 92 % 1019,2 hPa 0,0 l/m² 0,1 km/h (0 Bft) N 0,00 h 0 W/m² 8,0 °C 9,2 °C 0,2 km/h (0 Bft)
13.05.2023 03:00 21,6 °C 8,1 °C 55 % 93 % 1019,3 hPa 0,0 l/m² 0,0 km/h (0 Bft) N 0,00 h 0 W/m² 7,0 °C 8,1 °C 0,0 km/h (0 Bft)
13.05.2023 04:00 21,5 °C 7,5 °C 55 % 94 % 1019,5 hPa 0,0 l/m² 0,0 km/h (0 Bft) N 0,00 h 0 W/m² 6,6 °C 7,5 °C 0,0 km/h (0 Bft)
13.05.2023 05:00 21,4 °C 7,6 °C 55 % 94 % 1019,6 hPa 0,0 l/m² 0,0 km/h (0 Bft) N 0,00 h 13 W/m² 6,7 °C 7,6 °C 0,0 km/h (0 Bft)
13.05.2023 06:00 21,3 °C 7,6 °C 55 % 94 % 1019,8 hPa 0,0 l/m² 0,6 km/h (0 Bft) N 0,53 h 73 W/m² 6,8 °C 7,6 °C 1,1 km/h (1 Bft)
13.05.2023 07:00 21,3 °C 10,2 °C 55 % 94 % 1020,2 hPa 0,0 l/m² 0,7 km/h (0 Bft) N 1,00 h 150 W/m² 9,3 °C 10,2 °C 1,2 km/h (1 Bft)
13.05.2023 08:00 21,6 °C 12,0 °C 56 % 89 % 1020,5 hPa 0,0 l/m² 1,8 km/h (1 Bft) NO 1,00 h 260 W/m² 10,2 °C 12,0 °C 3,1 km/h (1 Bft)
13.05.2023 09:00 21,9 °C 15,7 °C 56 % 79 % 1020,5 hPa 0,0 l/m² 3,0 km/h (1 Bft) O-NO 1,00 h 576 W/m² 12,1 °C 15,7 °C 5,0 km/h (1 Bft)
13.05.2023 10:00 21,9 °C 18,1 °C 53 % 70 % 1020,4 hPa 0,0 l/m² 9,5 km/h (2 Bft) O 1,00 h 705 W/m² 12,5 °C 16,7 °C 13,8 km/h (3 Bft)
13.05.2023 11:00 22,0 °C 19,4 °C 53 % 63 % 1020,3 hPa 0,0 l/m² 12,0 km/h (2 Bft) O 1,00 h 811 W/m² 12,2 °C 17,4 °C 17,3 km/h (3 Bft)
13.05.2023 12:00 22,2 °C 20,2 °C 55 % 56 % 1020,0 hPa 0,0 l/m² 13,7 km/h (3 Bft) O 1,00 h 860 W/m² 11,2 °C 17,8 °C 18,9 km/h (3 Bft)
13.05.2023 13:00 22,4 °C 20,2 °C 54 % 56 % 1019,9 hPa 0,0 l/m² 13,5 km/h (3 Bft) O 1,00 h 715 W/m² 11,2 °C 17,9 °C 17,9 km/h (3 Bft)
13.05.2023 14:00 22,4 °C 21,0 °C 54 % 51 % 1019,8 hPa 0,0 l/m² 13,1 km/h (3 Bft) O 1,00 h 801 W/m² 10,5 °C 19,0 °C 18,5 km/h (3 Bft)
13.05.2023 15:00 22,5 °C 21,2 °C 55 % 49 % 1019,6 hPa 0,0 l/m² 13,4 km/h (3 Bft) O 1,00 h 711 W/m² 10,1 °C 19,2 °C 18,4 km/h (3 Bft)
13.05.2023 16:00 22,5 °C 20,8 °C 54 % 50 % 1019,4 hPa 0,0 l/m² 13,8 km/h (3 Bft) O-NO 1,00 h 579 W/m² 10,1 °C 18,6 °C 20,0 km/h (4 Bft)
13.05.2023 17:00 22,5 °C 18,0 °C 54 % 62 % 1019,7 hPa 0,0 l/m² 13,4 km/h (3 Bft) O-SO 1,00 h 251 W/m² 10,4 °C 15,3 °C 17,8 km/h (3 Bft)
13.05.2023 18:00 22,4 °C 17,7 °C 53 % 65 % 1019,6 hPa 0,0 l/m² 9,8 km/h (2 Bft) O-SO 1,00 h 181 W/m² 10,9 °C 16,2 °C 14,2 km/h (3 Bft)
13.05.2023 19:00 22,4 °C 16,1 °C 54 % 69 % 1019,7 hPa 0,0 l/m² 7,2 km/h (2 Bft) O 0,17 h 43 W/m² 10,4 °C 15,4 °C 10,3 km/h (2 Bft)
13.05.2023 20:00 22,4 °C 14,6 °C 54 % 73 % 1019,9 hPa 0,0 l/m² 5,2 km/h (1 Bft) O-NO 0,00 h 20 W/m² 9,8 °C 14,6 °C 8,5 km/h (2 Bft)
13.05.2023 21:00 22,4 °C 12,9 °C 54 % 78 % 1020,5 hPa 0,0 l/m² 5,7 km/h (2 Bft) O-NO 0,00 h 0 W/m² 9,0 °C 12,8 °C 8,6 km/h (2 Bft)
13.05.2023 22:00 22,5 °C 11,5 °C 54 % 82 % 1020,5 hPa 0,0 l/m² 1,7 km/h (1 Bft) O-NO 0,00 h 0 W/m² 8,5 °C 11,5 °C 2,7 km/h (1 Bft)
13.05.2023 23:00 22,1 °C 10,0 °C 54 % 87 % 1020,4 hPa 0,0 l/m² 0,3 km/h (0 Bft) N 0,00 h 0 W/m² 8,0 °C 10,0 °C 0,6 km/h (0 Bft)
14.05.2023 00:00 21,9 °C 9,0 °C 54 % 91 % 1020,3 hPa 0,0 l/m² 0,0 km/h (0 Bft) N 0,00 h 0 W/m² 7,6 °C 9,0 °C 0,0 km/h (0 Bft)
14.05.2023 01:00 21,8 °C 9,4 °C 55 % 92 % 1020,2 hPa 0,0 l/m² 0,0 km/h (0 Bft) N 0,00 h 0 W/m² 8,2 °C 9,4 °C 0,1 km/h (0 Bft)
14.05.2023 02:00 21,7 °C 9,7 °C 55 % 92 % 1019,8 hPa 0,0 l/m² 0,7 km/h (0 Bft) N 0,00 h 0 W/m² 8,5 °C 9,7 °C 1,1 km/h (1 Bft)
14.05.2023 03:00 21,6 °C 10,2 °C 55 % 92 % 1019,7 hPa 0,0 l/m² 0,3 km/h (0 Bft) N 0,00 h 0 W/m² 9,0 °C 10,2 °C 0,6 km/h (0 Bft)
14.05.2023 04:00 21,5 °C 10,2 °C 55 % 91 % 1019,4 hPa 0,0 l/m² 0,1 km/h (0 Bft) N 0,00 h 0 W/m² 8,8 °C 10,2 °C 0,3 km/h (0 Bft)
14.05.2023 05:00 21,6 °C 9,9 °C 55 % 93 % 1019,1 hPa 0,0 l/m² 0,3 km/h (0 Bft) N 0,00 h 8 W/m² 8,7 °C 9,9 °C 0,6 km/h (0 Bft)
14.05.2023 06:00 21,6 °C 9,8 °C 54 % 94 % 1018,9 hPa 0,0 l/m² 0,0 km/h (0 Bft) N 0,13 h 32 W/m² 8,9 °C 9,8 °C 0,0 km/h (0 Bft)
14.05.2023 07:00 21,5 °C 11,1 °C 54 % 93 % 1018,9 hPa 0,0 l/m² 1,6 km/h (1 Bft) W-NW 1,00 h 87 W/m² 10,0 °C 11,1 °C 3,3 km/h (1 Bft)
14.05.2023 08:00 21,5 °C 12,9 °C 55 % 87 % 1018,8 hPa 0,0 l/m² 5,0 km/h (1 Bft) W 0,98 h 272 W/m² 10,8 °C 12,9 °C 8,2 km/h (2 Bft)
14.05.2023 09:00 22,0 °C 15,7 °C 55 % 78 % 1018,3 hPa 0,0 l/m² 3,5 km/h (1 Bft) W 1,00 h 531 W/m² 11,8 °C 15,6 °C 6,7 km/h (2 Bft)
14.05.2023 10:00 22,3 °C 18,0 °C 54 % 68 % 1017,7 hPa 0,0 l/m² 4,7 km/h (1 Bft) N-NW 1,00 h 691 W/m² 11,9 °C 17,9 °C 8,4 km/h (2 Bft)
14.05.2023 11:00 22,6 °C 19,4 °C 52 % 60 % 1017,4 hPa 0,0 l/m² 5,0 km/h (1 Bft) O-NO 1,00 h 842 W/m² 11,5 °C 19,3 °C 9,0 km/h (2 Bft)
14.05.2023 12:00 23,0 °C 20,1 °C 51 % 58 % 1016,7 hPa 0,0 l/m² 6,3 km/h (2 Bft) O 1,02 h 892 W/m² 11,4 °C 19,6 °C 10,3 km/h (2 Bft)
14.05.2023 13:00 23,0 °C 20,1 °C 48 % 55 % 1016,1 hPa 0,0 l/m² 7,8 km/h (2 Bft) NO 1,00 h 605 W/m² 10,8 °C 19,4 °C 12,5 km/h (2 Bft)
14.05.2023 14:00 22,7 °C 19,0 °C 49 % 58 % 1015,8 hPa 0,0 l/m² 7,1 km/h (2 Bft) O-NO 1,00 h 303 W/m² 10,6 °C 18,5 °C 11,5 km/h (2 Bft)
14.05.2023 15:00 22,6 °C 19,4 °C 50 % 57 % 1015,3 hPa 0,0 l/m² 9,6 km/h (2 Bft) O 1,00 h 586 W/m² 10,7 °C 18,1 °C 13,7 km/h (3 Bft)
14.05.2023 16:00 22,5 °C 20,4 °C 50 % 56 % 1014,6 hPa 0,0 l/m² 10,9 km/h (2 Bft) O 1,00 h 616 W/m² 11,2 °C 18,8 °C 15,9 km/h (3 Bft)
14.05.2023 17:00 22,4 °C 19,4 °C 48 % 58 % 1014,2 hPa 0,0 l/m² 11,1 km/h (2 Bft) O 1,00 h 452 W/m² 11,0 °C 17,7 °C 15,3 km/h (3 Bft)
14.05.2023 18:00 22,3 °C 18,9 °C 47 % 56 % 1013,9 hPa 0,0 l/m² 9,7 km/h (2 Bft) O 1,00 h 245 W/m² 9,9 °C 17,6 °C 13,5 km/h (3 Bft)
14.05.2023 19:00 22,5 °C 17,9 °C 50 % 59 % 1013,8 hPa 0,0 l/m² 5,9 km/h (2 Bft) O-NO 1,00 h 80 W/m² 9,8 °C 17,4 °C 8,7 km/h (2 Bft)
14.05.2023 20:00 22,6 °C 16,7 °C 53 % 67 % 1014,0 hPa 0,0 l/m² 1,3 km/h (1 Bft) O-NO 0,03 h 26 W/m² 10,4 °C 16,7 °C 2,5 km/h (1 Bft)
14.05.2023 21:00 22,7 °C 13,9 °C 54 % 78 % 1014,2 hPa 0,0 l/m² 1,1 km/h (1 Bft) O 0,00 h 0 W/m² 10,0 °C 13,9 °C 2,0 km/h (1 Bft)
14.05.2023 22:00 22,6 °C 11,4 °C 54 % 84 % 1013,8 hPa 0,0 l/m² 0,7 km/h (0 Bft) W-NW 0,00 h 0 W/m² 8,8 °C 11,4 °C 1,1 km/h (0 Bft)
14.05.2023 23:00 22,4 °C 10,0 °C 54 % 90 % 1013,4 hPa 0,0 l/m² 0,3 km/h (0 Bft) W-NW 0,00 h 0 W/m² 8,4 °C 10,0 °C 0,4 km/h (0 Bft)
Min-Datum _ 12.05.23 08.05.23 08.05.23 09.05.23 10.05.23 - 14.05.23 - - - 08.05.23 08.05.23 14.05.23
_ Min-Zeit 04:00 05:53 12:02 18:25 06:48 - 23:10 - - - 05:53 08:09 23:10
Minimum _ 21,1 °C 3,8 °C 43 % 35 % 1008,8 hPa - 0,0 km/h (0 Bft) - - - 2,5 °C 0,4 °C 0,0 km/h (0 Bft)
Max-Datum _ 14.05.23 12.05.23 10.05.23 11.05.23 08.05.23 11.05.23 09.05.23 - 13.05.23 11.05.23 11.05.23 12.05.23 11.05.23
_ Max-Zeit 13:01 14:50 19:02 08:01 09:18 17:09 13:46 - 17:34 14:16 16:29 15:15 17:06
Maximum _ 23,1 °C 23,8 °C 58 % 97 % 1025,3 hPa 6,2 l/m² 28,4 km/h
O (5 Bft)
- 0,12 h 1102 W/m² 17,1 °C 23,4 °C 38,6 km/h
NW (6 Bft)
Durchschnitt _ 21,9 °C 14,0 °C 53 % 76 % 1017,1 hPa #7,6 l/m² 6,8 km/h (2 Bft) O-NO #90:03 h 240 W/m² 9,5 °C 12,9 °C 9,7 km/h (2 Bft)
© 2009 Mathias Hoßbach